sensor_id;sensor_type;location;lat;lon;timestamp;temperature;humidity
33095;DHT22;19459;53.044;8.910;2023-02-07T00:00:08;-0.80;99.90
33095;DHT22;19459;53.044;8.910;2023-02-07T00:02:43;-0.90;99.90
33095;DHT22;19459;53.044;8.910;2023-02-07T00:05:10;-0.90;99.90
33095;DHT22;19459;53.044;8.910;2023-02-07T00:07:37;-0.90;99.90
33095;DHT22;19459;53.044;8.910;2023-02-07T00:10:04;-0.90;99.90
33095;DHT22;19459;53.044;8.910;2023-02-07T00:12:30;-0.90;99.90
33095;DHT22;19459;53.044;8.910;2023-02-07T00:14:56;-1.00;99.90
33095;DHT22;19459;53.044;8.910;2023-02-07T00:17:22;-1.00;99.90
33095;DHT22;19459;53.044;8.910;2023-02-07T00:19:48;-1.00;99.90
33095;DHT22;19459;53.044;8.910;2023-02-07T00:22:14;-1.00;99.90
33095;DHT22;19459;53.044;8.910;2023-02-07T00:24:40;-1.10;99.90
33095;DHT22;19459;53.044;8.910;2023-02-07T00:27:05;-1.10;99.90
33095;DHT22;19459;53.044;8.910;2023-02-07T00:29:32;-1.10;99.90
33095;DHT22;19459;53.044;8.910;2023-02-07T00:31:58;-1.20;99.90
33095;DHT22;19459;53.044;8.910;2023-02-07T00:34:24;-1.20;99.90
33095;DHT22;19459;53.044;8.910;2023-02-07T00:36:50;-1.20;99.90
33095;DHT22;19459;53.044;8.910;2023-02-07T00:39:16;-1.20;99.90
33095;DHT22;19459;53.044;8.910;2023-02-07T00:41:43;-1.20;99.90
33095;DHT22;19459;53.044;8.910;2023-02-07T00:44:09;-1.20;99.90
33095;DHT22;19459;53.044;8.910;2023-02-07T00:46:36;-1.30;99.90
33095;DHT22;19459;53.044;8.910;2023-02-07T00:49:03;-1.30;99.90
33095;DHT22;19459;53.044;8.910;2023-02-07T00:51:30;-1.30;99.90
33095;DHT22;19459;53.044;8.910;2023-02-07T00:53:58;-1.30;99.90
33095;DHT22;19459;53.044;8.910;2023-02-07T00:56:26;-1.30;99.90
33095;DHT22;19459;53.044;8.910;2023-02-07T00:58:53;-1.40;99.90
33095;DHT22;19459;53.044;8.910;2023-02-07T01:01:19;-1.40;99.90
33095;DHT22;19459;53.044;8.910;2023-02-07T01:03:45;-1.40;99.90
33095;DHT22;19459;53.044;8.910;2023-02-07T01:06:11;-1.40;99.90
33095;DHT22;19459;53.044;8.910;2023-02-07T01:08:38;-1.40;99.90
33095;DHT22;19459;53.044;8.910;2023-02-07T01:11:06;-1.40;99.90
33095;DHT22;19459;53.044;8.910;2023-02-07T01:13:34;-1.40;99.90
33095;DHT22;19459;53.044;8.910;2023-02-07T01:16:01;-1.50;99.90
33095;DHT22;19459;53.044;8.910;2023-02-07T01:18:27;-1.50;99.90
33095;DHT22;19459;53.044;8.910;2023-02-07T01:20:52;-1.60;99.90
33095;DHT22;19459;53.044;8.910;2023-02-07T01:23:18;-1.50;99.90
33095;DHT22;19459;53.044;8.910;2023-02-07T01:25:45;-1.60;99.90
33095;DHT22;19459;53.044;8.910;2023-02-07T01:28:12;-1.60;99.90
33095;DHT22;19459;53.044;8.910;2023-02-07T01:30:40;-1.70;99.90
33095;DHT22;19459;53.044;8.910;2023-02-07T01:33:07;-1.60;99.90
33095;DHT22;19459;53.044;8.910;2023-02-07T01:35:33;-1.70;99.90
33095;DHT22;19459;53.044;8.910;2023-02-07T01:37:59;-1.70;99.90
33095;DHT22;19459;53.044;8.910;2023-02-07T01:40:27;-1.70;99.90
33095;DHT22;19459;53.044;8.910;2023-02-07T01:42:55;-1.70;99.90
33095;DHT22;19459;53.044;8.910;2023-02-07T01:48:15;-1.80;99.90
33095;DHT22;19459;53.044;8.910;2023-02-07T01:50:47;-1.80;99.90
33095;DHT22;19459;53.044;8.910;2023-02-07T01:53:15;-1.80;99.90
33095;DHT22;19459;53.044;8.910;2023-02-07T01:55:43;-1.80;99.90
33095;DHT22;19459;53.044;8.910;2023-02-07T01:58:10;-1.80;99.90
33095;DHT22;19459;53.044;8.910;2023-02-07T02:00:36;-1.90;99.90
33095;DHT22;19459;53.044;8.910;2023-02-07T02:03:03;-1.90;99.90
33095;DHT22;19459;53.044;8.910;2023-02-07T02:05:30;-1.90;99.90
33095;DHT22;19459;53.044;8.910;2023-02-07T02:07:57;-1.90;99.90
33095;DHT22;19459;53.044;8.910;2023-02-07T02:10:43;-1.90;99.90
33095;DHT22;19459;53.044;8.910;2023-02-07T02:16:41;-2.00;99.90
33095;DHT22;19459;53.044;8.910;2023-02-07T02:23:17;-2.00;99.90
33095;DHT22;19459;53.044;8.910;2023-02-07T02:32:00;-2.00;99.90
33095;DHT22;19459;53.044;8.910;2023-02-07T02:43:12;-1.90;99.90
33095;DHT22;19459;53.044;8.910;2023-02-07T02:46:30;-1.90;99.90
33095;DHT22;19459;53.044;8.910;2023-02-07T02:49:00;-1.90;99.90
33095;DHT22;19459;53.044;8.910;2023-02-07T02:51:30;-1.90;99.90
33095;DHT22;19459;53.044;8.910;2023-02-07T02:53:58;-1.80;99.90
33095;DHT22;19459;53.044;8.910;2023-02-07T02:59:34;-1.80;99.90
33095;DHT22;19459;53.044;8.910;2023-02-07T03:08:42;-1.80;99.90
33095;DHT22;19459;53.044;8.910;2023-02-07T03:11:20;-1.80;99.90
33095;DHT22;19459;53.044;8.910;2023-02-07T03:13:59;-1.80;99.90
33095;DHT22;19459;53.044;8.910;2023-02-07T03:16:46;-1.80;99.90
33095;DHT22;19459;53.044;8.910;2023-02-07T03:19:34;-1.80;99.90
33095;DHT22;19459;53.044;8.910;2023-02-07T03:22:10;-1.80;99.90
33095;DHT22;19459;53.044;8.910;2023-02-07T03:24:41;-1.80;99.90
33095;DHT22;19459;53.044;8.910;2023-02-07T03:27:12;-1.80;99.90
33095;DHT22;19459;53.044;8.910;2023-02-07T03:29:42;-1.80;99.90
33095;DHT22;19459;53.044;8.910;2023-02-07T03:32:11;-1.90;99.90
33095;DHT22;19459;53.044;8.910;2023-02-07T03:34:56;-1.90;99.90
33095;DHT22;19459;53.044;8.910;2023-02-07T03:37:28;-1.80;99.90
33095;DHT22;19459;53.044;8.910;2023-02-07T03:40:00;-1.80;99.90
33095;DHT22;19459;53.044;8.910;2023-02-07T03:42:44;-1.90;99.90
33095;DHT22;19459;53.044;8.910;2023-02-07T03:45:15;-1.90;99.90
33095;DHT22;19459;53.044;8.910;2023-02-07T03:47:42;-1.90;99.90
33095;DHT22;19459;53.044;8.910;2023-02-07T03:50:08;-1.90;99.90
33095;DHT22;19459;53.044;8.910;2023-02-07T03:52:34;-1.90;99.90
33095;DHT22;19459;53.044;8.910;2023-02-07T03:55:00;-1.90;99.90
33095;DHT22;19459;53.044;8.910;2023-02-07T03:57:26;-1.90;99.90
33095;DHT22;19459;53.044;8.910;2023-02-07T03:59:51;-1.90;99.90
33095;DHT22;19459;53.044;8.910;2023-02-07T04:02:17;-2.00;99.90
33095;DHT22;19459;53.044;8.910;2023-02-07T04:04:43;-1.90;99.90
33095;DHT22;19459;53.044;8.910;2023-02-07T04:07:10;-1.90;99.90
33095;DHT22;19459;53.044;8.910;2023-02-07T04:09:36;-2.00;99.90
33095;DHT22;19459;53.044;8.910;2023-02-07T04:12:02;-2.00;99.90
33095;DHT22;19459;53.044;8.910;2023-02-07T04:14:28;-2.10;99.90
33095;DHT22;19459;53.044;8.910;2023-02-07T04:16:54;-2.10;99.90
33095;DHT22;19459;53.044;8.910;2023-02-07T04:19:20;-2.10;99.90
33095;DHT22;19459;53.044;8.910;2023-02-07T04:21:47;-2.10;99.90
33095;DHT22;19459;53.044;8.910;2023-02-07T04:24:12;-2.20;99.90
33095;DHT22;19459;53.044;8.910;2023-02-07T04:26:38;-2.20;99.90
33095;DHT22;19459;53.044;8.910;2023-02-07T04:29:04;-2.30;99.90
33095;DHT22;19459;53.044;8.910;2023-02-07T04:31:30;-2.20;99.90
33095;DHT22;19459;53.044;8.910;2023-02-07T04:33:56;-2.30;99.90
33095;DHT22;19459;53.044;8.910;2023-02-07T04:36:22;-2.30;99.90
33095;DHT22;19459;53.044;8.910;2023-02-07T04:38:48;-2.30;99.90
33095;DHT22;19459;53.044;8.910;2023-02-07T04:41:13;-2.30;99.90
33095;DHT22;19459;53.044;8.910;2023-02-07T04:43:39;-2.40;99.90
33095;DHT22;19459;53.044;8.910;2023-02-07T04:46:06;-2.40;99.90
33095;DHT22;19459;53.044;8.910;2023-02-07T04:48:32;-2.40;99.90
33095;DHT22;19459;53.044;8.910;2023-02-07T04:51:01;-2.50;99.90
33095;DHT22;19459;53.044;8.910;2023-02-07T04:53:26;-2.50;99.90
33095;DHT22;19459;53.044;8.910;2023-02-07T04:55:53;-2.50;99.90
33095;DHT22;19459;53.044;8.910;2023-02-07T04:58:20;-2.60;99.90
33095;DHT22;19459;53.044;8.910;2023-02-07T05:00:47;-2.60;99.90
33095;DHT22;19459;53.044;8.910;2023-02-07T05:03:13;-2.60;99.90
33095;DHT22;19459;53.044;8.910;2023-02-07T05:05:40;-2.60;99.90
33095;DHT22;19459;53.044;8.910;2023-02-07T05:08:07;-2.70;99.90
33095;DHT22;19459;53.044;8.910;2023-02-07T05:10:34;-2.70;99.90
33095;DHT22;19459;53.044;8.910;2023-02-07T05:13:00;-2.70;99.90
33095;DHT22;19459;53.044;8.910;2023-02-07T05:15:26;-2.70;99.90
33095;DHT22;19459;53.044;8.910;2023-02-07T05:17:52;-2.80;99.90
33095;DHT22;19459;53.044;8.910;2023-02-07T05:20:18;-2.80;99.90
33095;DHT22;19459;53.044;8.910;2023-02-07T05:22:45;-2.80;99.90
33095;DHT22;19459;53.044;8.910;2023-02-07T05:25:11;-2.80;99.90
33095;DHT22;19459;53.044;8.910;2023-02-07T05:27:37;-2.90;99.90
33095;DHT22;19459;53.044;8.910;2023-02-07T05:30:03;-2.90;99.90
33095;DHT22;19459;53.044;8.910;2023-02-07T05:32:29;-2.90;99.90
33095;DHT22;19459;53.044;8.910;2023-02-07T05:35:13;-2.90;99.90
33095;DHT22;19459;53.044;8.910;2023-02-07T05:37:39;-2.90;99.90
33095;DHT22;19459;53.044;8.910;2023-02-07T05:40:06;-3.00;99.90
33095;DHT22;19459;53.044;8.910;2023-02-07T05:42:32;-3.00;99.90
33095;DHT22;19459;53.044;8.910;2023-02-07T05:44:58;-3.00;99.90
33095;DHT22;19459;53.044;8.910;2023-02-07T05:47:23;-3.00;99.90
33095;DHT22;19459;53.044;8.910;2023-02-07T05:49:49;-3.00;99.90
33095;DHT22;19459;53.044;8.910;2023-02-07T05:52:15;-3.10;99.90
33095;DHT22;19459;53.044;8.910;2023-02-07T05:54:41;-3.10;99.90
33095;DHT22;19459;53.044;8.910;2023-02-07T05:57:06;-3.10;99.90
33095;DHT22;19459;53.044;8.910;2023-02-07T05:59:32;-3.10;99.90
33095;DHT22;19459;53.044;8.910;2023-02-07T06:01:58;-3.10;99.90
33095;DHT22;19459;53.044;8.910;2023-02-07T06:04:24;-3.20;99.90
33095;DHT22;19459;53.044;8.910;2023-02-07T06:06:50;-3.20;99.90
33095;DHT22;19459;53.044;8.910;2023-02-07T06:09:15;-3.20;99.90
33095;DHT22;19459;53.044;8.910;2023-02-07T06:11:41;-3.20;99.90
33095;DHT22;19459;53.044;8.910;2023-02-07T06:14:07;-3.20;99.90
33095;DHT22;19459;53.044;8.910;2023-02-07T06:16:33;-3.20;99.90
33095;DHT22;19459;53.044;8.910;2023-02-07T06:18:58;-3.20;99.90
33095;DHT22;19459;53.044;8.910;2023-02-07T06:21:25;-3.30;99.90
33095;DHT22;19459;53.044;8.910;2023-02-07T06:23:50;-3.30;99.90
33095;DHT22;19459;53.044;8.910;2023-02-07T06:26:16;-3.30;99.90
33095;DHT22;19459;53.044;8.910;2023-02-07T06:28:42;-3.40;99.90
33095;DHT22;19459;53.044;8.910;2023-02-07T06:31:08;-3.30;99.90
33095;DHT22;19459;53.044;8.910;2023-02-07T06:33:34;-3.40;99.90
33095;DHT22;19459;53.044;8.910;2023-02-07T06:36:00;-3.40;99.90
33095;DHT22;19459;53.044;8.910;2023-02-07T06:38:25;-3.40;99.90
33095;DHT22;19459;53.044;8.910;2023-02-07T06:40:51;-3.40;99.90
33095;DHT22;19459;53.044;8.910;2023-02-07T06:43:17;-3.40;99.90
33095;DHT22;19459;53.044;8.910;2023-02-07T06:45:43;-3.50;99.90
33095;DHT22;19459;53.044;8.910;2023-02-07T06:48:09;-3.40;99.90
33095;DHT22;19459;53.044;8.910;2023-02-07T06:50:35;-3.50;99.90
33095;DHT22;19459;53.044;8.910;2023-02-07T06:53:01;-3.50;99.90
33095;DHT22;19459;53.044;8.910;2023-02-07T06:55:28;-3.50;99.90
33095;DHT22;19459;53.044;8.910;2023-02-07T06:57:55;-3.60;99.90
33095;DHT22;19459;53.044;8.910;2023-02-07T07:00:21;-3.50;99.90
33095;DHT22;19459;53.044;8.910;2023-02-07T07:02:48;-3.60;99.90
33095;DHT22;19459;53.044;8.910;2023-02-07T07:05:14;-3.60;99.90
33095;DHT22;19459;53.044;8.910;2023-02-07T07:07:40;-3.60;99.90
33095;DHT22;19459;53.044;8.910;2023-02-07T07:10:05;-3.60;99.90
33095;DHT22;19459;53.044;8.910;2023-02-07T07:12:32;-3.60;99.90
33095;DHT22;19459;53.044;8.910;2023-02-07T07:14:58;-3.60;99.90
33095;DHT22;19459;53.044;8.910;2023-02-07T07:17:24;-3.60;99.90
33095;DHT22;19459;53.044;8.910;2023-02-07T07:19:50;-3.60;99.90
33095;DHT22;19459;53.044;8.910;2023-02-07T07:22:16;-3.60;99.90
33095;DHT22;19459;53.044;8.910;2023-02-07T07:24:42;-3.60;99.90
33095;DHT22;19459;53.044;8.910;2023-02-07T07:27:08;-3.60;99.90
33095;DHT22;19459;53.044;8.910;2023-02-07T07:29:34;-3.60;99.90
33095;DHT22;19459;53.044;8.910;2023-02-07T07:31:59;-3.60;99.90
33095;DHT22;19459;53.044;8.910;2023-02-07T07:34:25;-3.60;99.90
33095;DHT22;19459;53.044;8.910;2023-02-07T07:36:51;-3.50;99.90
33095;DHT22;19459;53.044;8.910;2023-02-07T07:39:24;-3.50;99.90
33095;DHT22;19459;53.044;8.910;2023-02-07T07:41:50;-3.40;99.90
33095;DHT22;19459;53.044;8.910;2023-02-07T07:44:16;-3.20;99.90
33095;DHT22;19459;53.044;8.910;2023-02-07T07:46:42;-3.20;99.90
33095;DHT22;19459;53.044;8.910;2023-02-07T07:49:08;-3.30;99.90
33095;DHT22;19459;53.044;8.910;2023-02-07T07:51:34;-3.30;99.90
33095;DHT22;19459;53.044;8.910;2023-02-07T07:54:00;-3.30;99.90
33095;DHT22;19459;53.044;8.910;2023-02-07T07:56:26;-3.30;99.90
33095;DHT22;19459;53.044;8.910;2023-02-07T07:58:54;-3.20;99.90
33095;DHT22;19459;53.044;8.910;2023-02-07T08:01:20;-3.20;99.90
33095;DHT22;19459;53.044;8.910;2023-02-07T08:03:46;-3.20;99.90
33095;DHT22;19459;53.044;8.910;2023-02-07T08:06:12;-3.10;99.90
33095;DHT22;19459;53.044;8.910;2023-02-07T08:08:38;-3.00;99.90
33095;DHT22;19459;53.044;8.910;2023-02-07T08:11:06;-3.00;99.90
33095;DHT22;19459;53.044;8.910;2023-02-07T08:13:33;-2.90;99.90
33095;DHT22;19459;53.044;8.910;2023-02-07T08:16:00;-2.90;99.90
33095;DHT22;19459;53.044;8.910;2023-02-07T08:18:27;-2.80;99.90
33095;DHT22;19459;53.044;8.910;2023-02-07T08:20:53;-2.70;99.90
33095;DHT22;19459;53.044;8.910;2023-02-07T08:23:19;-2.60;99.90
33095;DHT22;19459;53.044;8.910;2023-02-07T08:25:45;-2.60;99.90
33095;DHT22;19459;53.044;8.910;2023-02-07T08:28:15;-2.50;99.90
33095;DHT22;19459;53.044;8.910;2023-02-07T08:30:41;-2.40;99.90
33095;DHT22;19459;53.044;8.910;2023-02-07T08:33:07;-2.30;99.90
33095;DHT22;19459;53.044;8.910;2023-02-07T08:35:36;-2.20;99.90
33095;DHT22;19459;53.044;8.910;2023-02-07T08:38:02;-2.20;99.90
33095;DHT22;19459;53.044;8.910;2023-02-07T08:40:31;-2.00;99.90
33095;DHT22;19459;53.044;8.910;2023-02-07T08:42:57;-1.90;99.90
33095;DHT22;19459;53.044;8.910;2023-02-07T08:45:24;-1.80;99.90
33095;DHT22;19459;53.044;8.910;2023-02-07T08:47:50;-1.70;99.90
33095;DHT22;19459;53.044;8.910;2023-02-07T08:50:16;-1.70;99.90
33095;DHT22;19459;53.044;8.910;2023-02-07T08:52:42;-1.60;99.90
33095;DHT22;19459;53.044;8.910;2023-02-07T08:55:08;-1.50;99.90
33095;DHT22;19459;53.044;8.910;2023-02-07T08:57:34;-1.40;99.90
33095;DHT22;19459;53.044;8.910;2023-02-07T09:00:01;-1.30;99.90
33095;DHT22;19459;53.044;8.910;2023-02-07T09:02:27;-1.20;99.90
33095;DHT22;19459;53.044;8.910;2023-02-07T09:04:55;-1.10;99.90
33095;DHT22;19459;53.044;8.910;2023-02-07T09:07:21;-1.00;99.90
33095;DHT22;19459;53.044;8.910;2023-02-07T09:09:47;-1.00;99.90
33095;DHT22;19459;53.044;8.910;2023-02-07T09:12:12;-0.80;99.90
33095;DHT22;19459;53.044;8.910;2023-02-07T09:14:39;-0.70;99.90
33095;DHT22;19459;53.044;8.910;2023-02-07T09:17:05;-0.60;99.90
33095;DHT22;19459;53.044;8.910;2023-02-07T09:19:32;-0.40;99.90
33095;DHT22;19459;53.044;8.910;2023-02-07T09:21:59;-0.30;99.90
33095;DHT22;19459;53.044;8.910;2023-02-07T09:24:25;-0.20;99.90
33095;DHT22;19459;53.044;8.910;2023-02-07T09:26:50;0.20;99.90
33095;DHT22;19459;53.044;8.910;2023-02-07T09:29:16;0.50;99.90
33095;DHT22;19459;53.044;8.910;2023-02-07T09:31:43;0.70;99.90
33095;DHT22;19459;53.044;8.910;2023-02-07T09:34:09;0.90;99.90
33095;DHT22;19459;53.044;8.910;2023-02-07T09:36:35;1.10;99.90
33095;DHT22;19459;53.044;8.910;2023-02-07T09:39:01;1.30;99.90
33095;DHT22;19459;53.044;8.910;2023-02-07T09:47:24;1.80;99.90
33095;DHT22;19459;53.044;8.910;2023-02-07T09:50:15;1.90;99.90
33095;DHT22;19459;53.044;8.910;2023-02-07T09:53:05;2.00;99.90
33095;DHT22;19459;53.044;8.910;2023-02-07T09:55:45;2.00;99.90
33095;DHT22;19459;53.044;8.910;2023-02-07T09:58:32;2.00;99.90
33095;DHT22;19459;53.044;8.910;2023-02-07T10:01:18;2.30;99.90
33095;DHT22;19459;53.044;8.910;2023-02-07T10:04:05;2.40;99.90
33095;DHT22;19459;53.044;8.910;2023-02-07T10:06:34;2.50;99.90
33095;DHT22;19459;53.044;8.910;2023-02-07T10:09:01;2.80;99.90
33095;DHT22;19459;53.044;8.910;2023-02-07T10:11:53;2.80;99.90
33095;DHT22;19459;53.044;8.910;2023-02-07T10:17:48;3.00;99.90
33095;DHT22;19459;53.044;8.910;2023-02-07T10:20:50;3.10;99.90
33095;DHT22;19459;53.044;8.910;2023-02-07T10:32:01;2.80;99.90
33095;DHT22;19459;53.044;8.910;2023-02-07T10:34:39;3.00;99.90
33095;DHT22;19459;53.044;8.910;2023-02-07T10:37:22;3.30;99.90
33095;DHT22;19459;53.044;8.910;2023-02-07T10:40:09;3.40;99.90
33095;DHT22;19459;53.044;8.910;2023-02-07T10:43:02;3.50;99.90
33095;DHT22;19459;53.044;8.910;2023-02-07T10:45:29;3.70;99.90
33095;DHT22;19459;53.044;8.910;2023-02-07T10:47:55;3.50;99.90
33095;DHT22;19459;53.044;8.910;2023-02-07T10:50:22;3.70;99.90
33095;DHT22;19459;53.044;8.910;2023-02-07T10:52:54;3.60;99.90
33095;DHT22;19459;53.044;8.910;2023-02-07T10:55:53;3.80;99.90
33095;DHT22;19459;53.044;8.910;2023-02-07T10:58:23;3.90;99.90
33095;DHT22;19459;53.044;8.910;2023-02-07T11:00:53;4.00;99.90
33095;DHT22;19459;53.044;8.910;2023-02-07T11:03:23;3.90;99.90
33095;DHT22;19459;53.044;8.910;2023-02-07T11:05:58;4.10;99.90
33095;DHT22;19459;53.044;8.910;2023-02-07T11:08:32;4.40;99.90
33095;DHT22;19459;53.044;8.910;2023-02-07T11:13:48;5.00;99.90
33095;DHT22;19459;53.044;8.910;2023-02-07T11:16:19;5.10;99.90
33095;DHT22;19459;53.044;8.910;2023-02-07T11:21:39;5.50;99.90
33095;DHT22;19459;53.044;8.910;2023-02-07T11:24:28;5.90;99.90
33095;DHT22;19459;53.044;8.910;2023-02-07T11:27:12;5.90;99.90
33095;DHT22;19459;53.044;8.910;2023-02-07T11:32:15;5.80;99.90
33095;DHT22;19459;53.044;8.910;2023-02-07T11:34:50;6.00;99.90
33095;DHT22;19459;53.044;8.910;2023-02-07T11:39:50;6.10;99.90
33095;DHT22;19459;53.044;8.910;2023-02-07T11:42:20;6.30;99.90
33095;DHT22;19459;53.044;8.910;2023-02-07T11:44:48;6.10;99.90
33095;DHT22;19459;53.044;8.910;2023-02-07T11:47:35;6.20;99.90
33095;DHT22;19459;53.044;8.910;2023-02-07T11:50:04;6.00;99.90
33095;DHT22;19459;53.044;8.910;2023-02-07T11:52:33;6.40;99.90
33095;DHT22;19459;53.044;8.910;2023-02-07T11:55:07;6.20;99.90
33095;DHT22;19459;53.044;8.910;2023-02-07T11:57:46;6.10;99.90
33095;DHT22;19459;53.044;8.910;2023-02-07T12:00:26;6.40;99.90
33095;DHT22;19459;53.044;8.910;2023-02-07T12:03:02;6.70;99.90
33095;DHT22;19459;53.044;8.910;2023-02-07T12:05:42;6.20;99.90
33095;DHT22;19459;53.044;8.910;2023-02-07T12:08:13;5.80;99.90
33095;DHT22;19459;53.044;8.910;2023-02-07T12:10:44;5.80;99.90
33095;DHT22;19459;53.044;8.910;2023-02-07T12:15:53;5.80;99.90
33095;DHT22;19459;53.044;8.910;2023-02-07T12:18:36;5.70;99.90
33095;DHT22;19459;53.044;8.910;2023-02-07T12:21:36;6.30;99.90
33095;DHT22;19459;53.044;8.910;2023-02-07T12:24:29;6.00;99.90
33095;DHT22;19459;53.044;8.910;2023-02-07T12:27:14;6.30;99.90
33095;DHT22;19459;53.044;8.910;2023-02-07T12:30:02;6.80;99.90
33095;DHT22;19459;53.044;8.910;2023-02-07T12:41:36;7.10;99.90
33095;DHT22;19459;53.044;8.910;2023-02-07T12:44:22;7.30;99.90
33095;DHT22;19459;53.044;8.910;2023-02-07T12:47:06;6.90;99.90
33095;DHT22;19459;53.044;8.910;2023-02-07T12:50:10;7.00;99.90
33095;DHT22;19459;53.044;8.910;2023-02-07T12:55:43;7.40;99.90
33095;DHT22;19459;53.044;8.910;2023-02-07T12:59:05;7.50;99.90
33095;DHT22;19459;53.044;8.910;2023-02-07T13:01:43;7.60;99.90
33095;DHT22;19459;53.044;8.910;2023-02-07T13:04:22;7.20;99.90
33095;DHT22;19459;53.044;8.910;2023-02-07T13:07:17;7.10;99.90
33095;DHT22;19459;53.044;8.910;2023-02-07T13:16:17;6.80;99.90
33095;DHT22;19459;53.044;8.910;2023-02-07T13:21:57;6.10;99.90
33095;DHT22;19459;53.044;8.910;2023-02-07T13:24:26;6.30;99.90
33095;DHT22;19459;53.044;8.910;2023-02-07T13:26:57;6.60;99.90
33095;DHT22;19459;53.044;8.910;2023-02-07T13:29:28;6.80;99.90
33095;DHT22;19459;53.044;8.910;2023-02-07T13:32:00;7.00;99.90
33095;DHT22;19459;53.044;8.910;2023-02-07T13:34:33;7.30;99.90
33095;DHT22;19459;53.044;8.910;2023-02-07T13:37:05;7.30;99.90
33095;DHT22;19459;53.044;8.910;2023-02-07T13:39:46;7.60;99.90
33095;DHT22;19459;53.044;8.910;2023-02-07T13:45:10;6.80;99.90
33095;DHT22;19459;53.044;8.910;2023-02-07T13:51:19;6.50;99.90
33095;DHT22;19459;53.044;8.910;2023-02-07T13:56:59;7.10;99.90
33095;DHT22;19459;53.044;8.910;2023-02-07T14:00:03;7.20;99.90
33095;DHT22;19459;53.044;8.910;2023-02-07T14:02:39;6.80;99.90
33095;DHT22;19459;53.044;8.910;2023-02-07T14:05:16;6.70;99.90
33095;DHT22;19459;53.044;8.910;2023-02-07T14:08:20;6.80;99.90
33095;DHT22;19459;53.044;8.910;2023-02-07T14:10:49;6.90;99.90
33095;DHT22;19459;53.044;8.910;2023-02-07T14:15:53;6.50;99.90
33095;DHT22;19459;53.044;8.910;2023-02-07T14:18:39;6.20;99.90
33095;DHT22;19459;53.044;8.910;2023-02-07T14:34:15;5.50;99.90
33095;DHT22;19459;53.044;8.910;2023-02-07T14:36:45;5.40;99.90
33095;DHT22;19459;53.044;8.910;2023-02-07T14:41:46;5.60;99.90
33095;DHT22;19459;53.044;8.910;2023-02-07T14:44:33;5.20;99.90
33095;DHT22;19459;53.044;8.910;2023-02-07T14:47:02;5.30;99.90
33095;DHT22;19459;53.044;8.910;2023-02-07T14:49:40;5.60;99.90
33095;DHT22;19459;53.044;8.910;2023-02-07T14:52:22;5.50;99.90
33095;DHT22;19459;53.044;8.910;2023-02-07T14:54:58;5.30;99.90
33095;DHT22;19459;53.044;8.910;2023-02-07T15:02:52;5.40;99.90
33095;DHT22;19459;53.044;8.910;2023-02-07T15:05:37;5.60;99.90
33095;DHT22;19459;53.044;8.910;2023-02-07T15:08:18;5.70;99.90
33095;DHT22;19459;53.044;8.910;2023-02-07T15:13:28;5.60;99.90
33095;DHT22;19459;53.044;8.910;2023-02-07T15:16:25;5.60;99.90
33095;DHT22;19459;53.044;8.910;2023-02-07T15:19:08;5.30;99.90
33095;DHT22;19459;53.044;8.910;2023-02-07T15:21:43;5.30;99.90
33095;DHT22;19459;53.044;8.910;2023-02-07T15:24:36;5.30;99.90
33095;DHT22;19459;53.044;8.910;2023-02-07T15:27:06;5.40;99.90
33095;DHT22;19459;53.044;8.910;2023-02-07T15:29:37;5.40;99.90
33095;DHT22;19459;53.044;8.910;2023-02-07T15:32:27;5.40;99.90
33095;DHT22;19459;53.044;8.910;2023-02-07T15:35:19;5.30;99.90
33095;DHT22;19459;53.044;8.910;2023-02-07T15:37:53;5.30;99.90
33095;DHT22;19459;53.044;8.910;2023-02-07T15:40:22;5.00;99.90
33095;DHT22;19459;53.044;8.910;2023-02-07T15:42:50;4.80;99.90
33095;DHT22;19459;53.044;8.910;2023-02-07T15:45:28;4.70;99.90
33095;DHT22;19459;53.044;8.910;2023-02-07T15:48:01;4.70;99.90
33095;DHT22;19459;53.044;8.910;2023-02-07T15:50:34;4.60;99.90
33095;DHT22;19459;53.044;8.910;2023-02-07T15:53:04;4.30;99.90
33095;DHT22;19459;53.044;8.910;2023-02-07T15:55:34;4.20;99.90
33095;DHT22;19459;53.044;8.910;2023-02-07T15:58:02;4.00;99.90
33095;DHT22;19459;53.044;8.910;2023-02-07T16:00:37;4.00;99.90
33095;DHT22;19459;53.044;8.910;2023-02-07T16:03:21;3.90;99.90
33095;DHT22;19459;53.044;8.910;2023-02-07T16:05:48;3.90;99.90
33095;DHT22;19459;53.044;8.910;2023-02-07T16:11:12;3.80;99.90
33095;DHT22;19459;53.044;8.910;2023-02-07T16:14:22;3.70;99.90
33095;DHT22;19459;53.044;8.910;2023-02-07T16:16:56;3.60;99.90
33095;DHT22;19459;53.044;8.910;2023-02-07T16:19:31;3.50;99.90
33095;DHT22;19459;53.044;8.910;2023-02-07T16:22:05;3.40;99.90
33095;DHT22;19459;53.044;8.910;2023-02-07T16:24:38;3.30;99.90
33095;DHT22;19459;53.044;8.910;2023-02-07T16:27:10;3.20;99.90
33095;DHT22;19459;53.044;8.910;2023-02-07T16:29:40;3.10;99.90
33095;DHT22;19459;53.044;8.910;2023-02-07T16:32:12;2.90;99.90
33095;DHT22;19459;53.044;8.910;2023-02-07T16:34:38;2.90;99.90
33095;DHT22;19459;53.044;8.910;2023-02-07T16:37:04;2.80;99.90
33095;DHT22;19459;53.044;8.910;2023-02-07T16:39:30;2.70;99.90
33095;DHT22;19459;53.044;8.910;2023-02-07T16:42:00;2.60;99.90
33095;DHT22;19459;53.044;8.910;2023-02-07T16:44:29;2.50;99.90
33095;DHT22;19459;53.044;8.910;2023-02-07T16:46:58;2.40;99.90
33095;DHT22;19459;53.044;8.910;2023-02-07T16:49:26;2.30;99.90
33095;DHT22;19459;53.044;8.910;2023-02-07T16:51:54;2.20;99.90
33095;DHT22;19459;53.044;8.910;2023-02-07T16:54:20;2.10;99.90
33095;DHT22;19459;53.044;8.910;2023-02-07T16:56:49;2.10;99.90
33095;DHT22;19459;53.044;8.910;2023-02-07T16:59:19;2.00;99.90
33095;DHT22;19459;53.044;8.910;2023-02-07T17:01:47;2.00;99.90
33095;DHT22;19459;53.044;8.910;2023-02-07T17:04:15;1.90;99.90
33095;DHT22;19459;53.044;8.910;2023-02-07T17:06:42;1.80;99.90
33095;DHT22;19459;53.044;8.910;2023-02-07T17:09:20;1.70;99.90
33095;DHT22;19459;53.044;8.910;2023-02-07T17:11:47;1.60;99.90
33095;DHT22;19459;53.044;8.910;2023-02-07T17:14:13;1.50;99.90
33095;DHT22;19459;53.044;8.910;2023-02-07T17:16:39;1.50;99.90
33095;DHT22;19459;53.044;8.910;2023-02-07T17:19:23;1.50;99.90
33095;DHT22;19459;53.044;8.910;2023-02-07T17:21:50;1.40;99.90
33095;DHT22;19459;53.044;8.910;2023-02-07T17:24:17;1.40;99.90
33095;DHT22;19459;53.044;8.910;2023-02-07T17:26:49;1.30;99.90
33095;DHT22;19459;53.044;8.910;2023-02-07T17:29:17;1.30;99.90
33095;DHT22;19459;53.044;8.910;2023-02-07T17:31:44;1.30;99.90
33095;DHT22;19459;53.044;8.910;2023-02-07T17:34:10;1.20;99.90
33095;DHT22;19459;53.044;8.910;2023-02-07T17:36:39;1.20;99.90
33095;DHT22;19459;53.044;8.910;2023-02-07T17:39:14;1.20;99.90
33095;DHT22;19459;53.044;8.910;2023-02-07T17:41:41;1.20;99.90
33095;DHT22;19459;53.044;8.910;2023-02-07T17:44:07;1.10;99.90
33095;DHT22;19459;53.044;8.910;2023-02-07T17:46:32;1.10;99.90
33095;DHT22;19459;53.044;8.910;2023-02-07T17:48:59;1.10;99.90
33095;DHT22;19459;53.044;8.910;2023-02-07T17:51:26;1.00;99.90
33095;DHT22;19459;53.044;8.910;2023-02-07T17:53:53;1.00;99.90
33095;DHT22;19459;53.044;8.910;2023-02-07T17:56:27;1.00;99.90
33095;DHT22;19459;53.044;8.910;2023-02-07T17:58:57;0.90;99.90
33095;DHT22;19459;53.044;8.910;2023-02-07T18:01:30;0.90;99.90
33095;DHT22;19459;53.044;8.910;2023-02-07T18:03:57;0.90;99.90
33095;DHT22;19459;53.044;8.910;2023-02-07T18:06:26;0.80;99.90